KAVX Airport Information

Runway Information
Runway 04 Length 3000 ft width 60 ft
Elevation 1602 ft Threshold 120 ft Heading 54
Runway 22 Length 3000 ft Width 60 ft
Elevation 1602 ft Threshold 149 ft Heading 234
Airport Frequencies
Type A/D Name SOCAL APP/ Frequency 127.4 MHZ
Type UNIC Name CTAF/UNICO Frequency 122.7 MHZ
Airport Navaids
Airport Weather Information & NOTAM
ADDS - METARS form results

(0137 UTC 29 June 2022)
Data provider http://aviationweather.gov/metar/data/
 
METAR text: KAVX 290051Z AUTO 00000KT 10SM CLR 29/05 A3001 RMK AO2 SLP126 T02890050
Conditions at: KAVX (AVALON , CA, US) observed 0051 UTC 29 June 2022
Temperature: 28.9°C (84°F)
Dewpoint: 5.0°C (41°F) [RH = 22%]
Pressure (altimeter): 30.01 inches Hg (1016.3 mb)
[Sea-level pressure: 1012.6 mb]
Winds: calm
Visibility: 10 or more miles (16+ km)
Ceiling: at least 12,000 feet AGL
Clouds: sky clear below 12,000 feet AGL
Weather: automated observation with no human augmentation;
there may or may not be significant weather present at this time